Time;durP1;ratioP1;P1;durP2;ratioP2;P2;SDS_P1;SDS_P2;PMS_P1;PMS_P2;Temp;Humidity;BMP_temperature;BMP_pressure;BME280_temperature;BME280_humidity;BME280_pressure;Samples;Min_cycle;Max_cycle;Signal;HPM_P1;HPM_P2
2022/11/24 00:00:31;;;;;;;;;2.00;2.00;;;;;10.60;78.82;100169.34;5029680;28;45376;-84
2022/11/24 00:02:56;;;;;;;;;1.75;1.75;;;;;10.08;78.94;100081.28;5022607;28;47978;-84
2022/11/24 00:05:22;;;;;;;;;1.75;1.75;;;;;10.14;78.81;100084.06;5050253;28;45923;-84
2022/11/24 00:07:47;;;;;;;;;2.75;1.75;;;;;10.02;79.29;100060.13;5039647;28;45664;-83
2022/11/24 00:10:13;;;;;;;;;2.25;2.25;;;;;10.57;79.14;100162.25;5033244;28;45664;-84
2022/11/24 00:12:38;;;;;;;;;2.50;2.25;;;;;10.35;78.95;100119.66;5038578;28;45570;-84
2022/11/24 00:15:04;;;;;;;;;2.67;2.67;;;;;10.73;79.02;100183.66;5040584;28;48247;-88
2022/11/24 00:17:29;;;;;;;;;2.00;2.00;;;;;10.74;78.77;100160.06;5041085;28;45440;-85
2022/11/24 00:19:54;;;;;;;;;2.75;2.00;;;;;10.62;78.87;100143.09;5034394;28;45567;-84
2022/11/24 00:22:20;;;;;;;;;3.00;2.67;;;;;10.69;78.73;100169.56;5029834;28;45361;-86
2022/11/24 00:24:45;;;;;;;;;1.00;0.50;;;;;10.54;78.79;100140.25;5032025;28;45466;-86
2022/11/24 00:27:10;;;;;;;;;2.00;2.00;;;;;10.30;78.55;100085.41;5029960;28;45639;-84
2022/11/24 00:29:36;;;;;;;;;1.00;1.00;;;;;10.39;78.36;100096.09;5028863;28;45840;-85
2022/11/24 00:32:04;;;;;;;;;2.00;2.00;;;;;10.75;78.34;100174.97;5014884;28;48523;-84
2022/11/24 00:34:30;;;;;;;;;2.50;2.50;;;;;10.45;78.29;100096.28;5011325;28;45872;-86
2022/11/24 00:36:55;;;;;;;;;3.00;1.75;;;;;10.55;77.97;100084.25;5031489;28;45639;-86
2022/11/24 00:39:21;;;;;;;;;1.00;1.00;;;;;11.00;78.08;100170.31;5033314;28;50206;-84
2022/11/24 00:41:46;;;;;;;;;4.00;3.00;;;;;10.70;78.09;100116.16;5029786;28;45493;-84
2022/11/24 00:44:11;;;;;;;;;1.25;1.00;;;;;10.54;77.81;100056.19;5035371;28;45757;-84
2022/11/24 00:46:37;;;;;;;;;1.00;1.00;;;;;11.05;77.75;100158.16;5036441;28;45376;-84
2022/11/24 00:49:03;;;;;;;;;1.50;1.00;;;;;10.52;77.04;100044.75;5011509;28;45516;-84
2022/11/24 00:51:29;;;;;;;;;3.00;3.00;;;;;10.57;77.12;100027.38;5033185;28;47450;-85
2022/11/24 00:53:56;;;;;;;;;4.50;2.50;;;;;10.92;77.13;100099.13;5033136;28;45504;-85
2022/11/24 00:56:22;;;;;;;;;1.50;1.50;;;;;10.92;77.06;100117.53;5029138;28;45455;-85
2022/11/24 00:58:49;;;;;;;;;0.50;0.50;;;;;10.54;77.37;100056.19;5036882;28;45585;-86
2022/11/24 01:01:18;;;;;;;;;2.00;1.00;;;;;11.07;77.37;100120.50;5033773;28;47305;-85
2022/11/24 01:03:43;;;;;;;;;1.50;1.50;;;;;10.77;77.56;100094.41;5031718;28;46033;-84
2022/11/24 01:06:13;;;;;;;;;2.25;1.75;;;;;10.91;76.97;100134.16;5026978;28;45450;-85
2022/11/24 01:08:39;;;;;;;;;1.00;1.00;;;;;10.51;76.82;100071.91;5013967;28;45376;-84
2022/11/24 01:11:25;;;;;;;;;1.25;1.25;;;;;11.02;76.81;100168.59;5032394;28;45791;-83
2022/11/24 01:13:53;;;;;;;;;3.25;2.00;;;;;11.01;77.14;100153.69;5033818;28;45652;-85
2022/11/24 01:16:22;;;;;;;;;3.50;1.25;;;;;10.98;76.80;100167.63;5037101;28;45683;-85
2022/11/24 01:18:48;;;;;;;;;1.00;1.00;;;;;10.93;76.61;100173.63;5028083;28;45508;-86
2022/11/24 01:21:14;;;;;;;;;1.50;1.25;;;;;10.80;76.79;100162.84;5032108;28;46960;-86
2022/11/24 01:23:40;;;;;;;;;0.00;0.00;;;;;10.78;76.62;100180.28;5016126;28;45521;-84
2022/11/24 01:26:08;;;;;;;;;0.75;0.25;;;;;10.23;76.79;100101.81;5032070;28;45237;-84
2022/11/24 01:28:34;;;;;;;;;0.00;0.00;;;;;10.22;76.98;100115.78;5031859;28;45395;-85
2022/11/24 01:31:01;;;;;;;;;1.50;1.50;;;;;10.66;76.89;100184.38;5031606;28;46411;-85
2022/11/24 01:33:27;;;;;;;;;1.00;1.00;;;;;10.62;77.05;100208.78;5030808;28;45568;-85
2022/11/24 01:35:53;;;;;;;;;0.00;0.00;;;;;10.47;77.18;100185.63;5030515;28;45360;-85
2022/11/24 01:38:19;;;;;;;;;0.50;0.50;;;;;10.57;77.30;100212.19;5033036;28;45663;-87
2022/11/24 01:40:44;;;;;;;;;0.25;0.25;;;;;10.23;77.65;100160.47;5032707;28;45431;-83
2022/11/24 01:43:20;;;;;;;;;1.00;0.00;;;;;10.02;77.53;100128.41;5035379;28;45339;-85
2022/11/24 01:45:46;;;;;;;;;0.00;0.00;;;;;10.06;77.48;100148.66;5035544;28;45588;-84
2022/11/24 01:48:19;;;;;;;;;0.25;0.00;;;;;10.28;77.96;100200.03;5032177;28;45457;-85
2022/11/24 01:50:50;;;;;;;;;0.50;0.00;;;;;10.32;77.94;100208.03;5037698;28;45944;-84
2022/11/24 01:53:16;;;;;;;;;0.25;0.00;;;;;10.46;77.88;100246.91;5040802;28;45911;-84
2022/11/24 01:55:41;;;;;;;;;0.00;0.00;;;;;10.44;78.02;100261.72;5033149;28;45409;-84
2022/11/24 01:58:16;;;;;;;;;0.25;0.25;;;;;10.08;77.94;100213.47;5035117;28;45581;-84
2022/11/24 02:00:44;;;;;;;;;0.00;0.00;;;;;9.85;77.93;100174.28;5031995;28;47324;-84
2022/11/24 02:03:14;;;;;;;;;0.00;0.00;;;;;9.95;78.24;100195.59;5037722;28;45456;-85
2022/11/24 02:05:48;;;;;;;;;0.00;0.00;;;;;10.36;78.25;100274.69;5019906;28;45750;-83
2022/11/24 02:08:24;;;;;;;;;0.00;0.00;;;;;9.81;78.34;100189.06;5030517;28;45527;-84
2022/11/24 02:10:49;;;;;;;;;0.00;0.00;;;;;10.05;78.23;100244.00;5014054;28;48449;-84
2022/11/24 02:13:15;;;;;;;;;0.00;0.00;;;;;10.02;78.33;100244.81;5031939;28;45530;-85
2022/11/24 02:15:41;;;;;;;;;1.25;0.25;;;;;9.73;78.63;100204.59;5025721;28;45569;-84
2022/11/24 02:18:06;;;;;;;;;0.00;0.00;;;;;10.08;78.79;100272.97;5043075;28;45415;-85
2022/11/24 02:20:32;;;;;;;;;0.50;0.50;;;;;10.14;78.77;100283.63;5035633;28;45448;-84
2022/11/24 02:23:15;;;;;;;;;3.00;2.00;;;;;10.26;79.00;100307.66;5035589;28;45874;-86
2022/11/24 02:25:44;;;;;;;;;1.25;1.00;;;;;10.24;79.13;100319.84;5018600;28;45125;-84
2022/11/24 02:28:14;;;;;;;;;1.00;1.00;;;;;9.92;79.37;100268.13;5004330;28;45423;-83
2022/11/24 02:30:40;;;;;;;;;1.25;1.25;;;;;10.21;79.38;100325.00;5020010;28;47335;-84
2022/11/24 02:33:05;;;;;;;;;0.00;0.00;;;;;9.53;79.73;100210.97;5013239;28;45529;-84
2022/11/24 02:35:31;;;;;;;;;0.00;0.00;;;;;9.81;79.77;100263.44;5033442;28;45450;-84
2022/11/24 02:37:56;;;;;;;;;3.00;1.00;;;;;9.73;79.89;100241.31;5032426;28;45610;-84
2022/11/24 02:40:25;;;;;;;;;2.00;1.75;;;;;10.17;79.74;100316.97;5034230;28;45602;-85
2022/11/24 02:42:55;;;;;;;;;0.75;0.00;;;;;10.15;80.10;100322.19;5033804;28;46098;-85
2022/11/24 02:45:21;;;;;;;;;1.00;1.00;;;;;9.90;80.40;100277.66;5037346;28;45602;-85
2022/11/24 02:47:47;;;;;;;;;1.00;1.00;;;;;10.11;80.67;100325.56;5044185;28;45281;-84
2022/11/24 02:50:12;;;;;;;;;0.00;0.00;;;;;9.72;80.88;100281.53;5037280;28;45435;-84
2022/11/24 02:52:37;;;;;;;;;2.00;2.00;;;;;9.51;80.88;100245.03;5032443;28;54934;-84
2022/11/24 02:55:04;;;;;;;;;1.00;0.00;;;;;10.02;81.20;100343.69;5015647;28;45343;-84
2022/11/24 02:57:29;;;;;;;;;1.25;0.25;;;;;9.66;81.53;100268.22;5029906;28;45560;-84
2022/11/24 02:59:55;;;;;;;;;1.00;1.00;;;;;9.75;81.33;100275.47;5024572;28;48044;-83
2022/11/24 03:02:20;;;;;;;;;0.00;0.00;;;;;10.20;81.06;100351.22;5033928;28;45405;-84
2022/11/24 03:04:46;;;;;;;;;1.00;0.25;;;;;10.17;81.47;100359.88;5031479;28;45668;-84
2022/11/24 03:07:11;;;;;;;;;1.00;1.00;;;;;10.15;81.45;100361.59;5019700;28;48826;-84
2022/11/24 03:09:36;;;;;;;;;0.00;0.00;;;;;9.87;81.55;100319.59;5032961;28;45612;-83
2022/11/24 03:12:02;;;;;;;;;0.33;0.33;;;;;9.57;81.45;100281.06;5031512;28;45682;-83
2022/11/24 03:14:27;;;;;;;;;0.25;0.25;;;;;9.82;81.54;100340.44;5030878;28;45478;-84
2022/11/24 03:16:52;;;;;;;;;1.00;1.00;;;;;9.79;81.70;100341.22;5030743;28;45411;-84
2022/11/24 03:19:17;;;;;;;;;0.33;0.33;;;;;9.90;81.35;100377.41;5030233;28;53118;-84
2022/11/24 03:21:43;;;;;;;;;1.00;1.00;;;;;9.82;81.69;100377.19;5030694;28;46621;-84
2022/11/24 03:24:08;;;;;;;;;0.00;0.00;;;;;9.55;81.90;100330.84;5021228;28;51413;-84
2022/11/24 03:26:34;;;;;;;;;0.75;0.00;;;;;9.38;81.97;100304.94;5036193;28;45355;-84
2022/11/24 03:28:59;;;;;;;;;0.25;0.25;;;;;9.70;81.73;100359.31;5036667;28;45458;-84
2022/11/24 03:31:25;;;;;;;;;0.50;0.50;;;;;10.04;81.50;100431.25;5034192;28;45463;-84
2022/11/24 03:33:50;;;;;;;;;0.00;0.00;;;;;9.86;81.97;100404.44;5034070;28;45429;-86
2022/11/24 03:36:16;;;;;;;;;0.25;0.25;;;;;9.65;81.76;100362.63;5035802;28;45567;-83
2022/11/24 03:38:41;;;;;;;;;2.50;0.25;;;;;10.02;82.01;100430.31;5037948;28;45411;-84
2022/11/24 03:41:06;;;;;;;;;2.00;1.00;;;;;9.80;82.09;100402.47;5030998;28;45426;-84
2022/11/24 03:43:32;;;;;;;;;1.50;1.25;;;;;9.98;81.89;100429.31;5034677;28;45349;-85
2022/11/24 03:45:57;;;;;;;;;0.00;0.00;;;;;9.98;82.19;100421.44;5015090;28;47694;-84
2022/11/24 03:48:23;;;;;;;;;0.00;0.00;;;;;9.45;82.26;100341.88;5031015;28;47226;-85
2022/11/24 03:50:57;;;;;;;;;0.75;0.75;;;;;9.99;81.97;100438.09;5030896;28;45467;-84
2022/11/24 03:53:24;;;;;;;;;1.00;0.00;;;;;9.59;81.97;100367.69;5031762;28;45324;-84
2022/11/24 03:55:49;;;;;;;;;0.75;0.75;;;;;9.97;81.95;100432.78;5038349;28;45417;-84
2022/11/24 03:58:15;;;;;;;;;1.00;1.00;;;;;9.80;82.13;100397.22;5030109;28;45513;-84
2022/11/24 04:00:40;;;;;;;;;1.00;1.00;;;;;9.95;82.56;100444.06;5031848;28;45550;-84
2022/11/24 04:03:05;;;;;;;;;1.00;0.50;;;;;9.93;82.20;100444.03;5032253;28;45580;-84
2022/11/24 04:05:32;;;;;;;;;0.75;0.75;;;;;9.62;82.15;100400.16;5032710;28;45688;-84
2022/11/24 04:08:01;;;;;;;;;1.00;1.00;;;;;9.75;82.20;100430.31;5032287;28;45579;-85
2022/11/24 04:10:27;;;;;;;;;1.00;1.00;;;;;9.93;82.40;100464.16;5031891;28;46033;-86
2022/11/24 04:12:52;;;;;;;;;1.50;1.00;;;;;9.66;82.09;100419.53;5029428;28;45728;-84
2022/11/24 04:15:19;;;;;;;;;1.00;1.00;;;;;9.76;82.18;100434.75;5030353;28;45473;-84
2022/11/24 04:17:45;;;;;;;;;1.00;1.00;;;;;9.89;82.25;100476.28;5032597;28;46025;-84
2022/11/24 04:20:12;;;;;;;;;1.00;1.00;;;;;9.56;82.22;100428.84;5029858;28;45884;-84
2022/11/24 04:22:38;;;;;;;;;2.00;1.75;;;;;9.90;82.23;100487.66;5029852;28;45553;-85
2022/11/24 04:25:05;;;;;;;;;2.00;2.00;;;;;9.50;82.21;100418.09;5030089;28;45364;-84
2022/11/24 04:27:35;;;;;;;;;1.00;0.50;;;;;9.88;82.28;100481.47;5032293;28;45487;-84
2022/11/24 04:30:01;;;;;;;;;2.00;2.00;;;;;9.33;82.23;100393.94;5031440;28;45715;-84
2022/11/24 04:32:26;;;;;;;;;1.00;1.00;;;;;9.85;82.38;100505.88;5029714;28;45503;-85
2022/11/24 04:34:52;;;;;;;;;1.00;1.00;;;;;9.65;82.46;100464.97;5014334;28;45858;-84
2022/11/24 04:37:17;;;;;;;;;3.00;2.00;;;;;9.85;82.30;100503.25;5041967;28;51460;-84
2022/11/24 04:39:43;;;;;;;;;0.25;0.00;;;;;9.37;82.13;100421.19;5046865;28;45307;-84
2022/11/24 04:42:09;;;;;;;;;0.00;0.00;;;;;9.54;82.37;100452.38;5023244;28;45335;-85
2022/11/24 04:44:34;;;;;;;;;1.00;1.00;;;;;9.26;82.33;100419.09;5038555;28;45162;-85
2022/11/24 04:47:00;;;;;;;;;0.25;0.00;;;;;9.81;82.03;100506.66;5036491;28;59807;-88
2022/11/24 04:49:25;;;;;;;;;0.00;0.00;;;;;9.40;82.06;100444.88;5031733;28;45481;-88
2022/11/24 04:51:50;;;;;;;;;0.00;0.00;;;;;9.78;82.14;100517.03;5031707;28;45541;-86
2022/11/24 04:54:16;;;;;;;;;0.00;0.00;;;;;9.65;82.24;100484.22;5032805;28;45780;-84
2022/11/24 04:56:42;;;;;;;;;0.00;0.00;;;;;9.38;82.31;100449.19;5035832;28;46206;-84
2022/11/24 04:59:13;;;;;;;;;0.75;0.75;;;;;9.71;81.97;100517.69;5032228;28;45428;-84
2022/11/24 05:01:38;;;;;;;;;0.00;0.00;;;;;9.24;82.36;100440.84;5037365;28;45719;-83
2022/11/24 05:04:03;;;;;;;;;0.00;0.00;;;;;9.16;82.42;100424.84;5034476;28;45383;-84
2022/11/24 05:06:29;;;;;;;;;1.00;1.00;;;;;9.66;82.57;100520.13;5036810;28;46320;-84
2022/11/24 05:08:54;;;;;;;;;1.25;0.25;;;;;9.38;82.46;100464.91;5034390;28;45492;-84
2022/11/24 05:11:19;;;;;;;;;1.00;0.00;;;;;9.61;82.33;100497.22;5035772;28;45965;-84
2022/11/24 05:13:45;;;;;;;;;0.00;0.00;;;;;9.65;82.42;100504.31;5044059;28;48943;-83
2022/11/24 05:16:11;;;;;;;;;0.00;0.00;;;;;9.57;82.40;100504.06;5041570;28;54161;-83
2022/11/24 05:18:38;;;;;;;;;0.00;0.00;;;;;9.17;82.57;100436.22;5034027;28;45338;-84
2022/11/24 05:21:03;;;;;;;;;1.25;1.00;;;;;9.47;82.76;100484.50;5030348;28;45451;-84
2022/11/24 05:23:29;;;;;;;;;1.00;0.25;;;;;9.65;82.66;100533.19;5025855;28;45698;-84
2022/11/24 05:25:59;;;;;;;;;1.00;0.00;;;;;9.12;82.73;100437.78;5030080;28;45874;-84
2022/11/24 05:28:25;;;;;;;;;0.50;0.50;;;;;9.54;82.18;100501.34;5028855;28;45414;-84
2022/11/24 05:30:57;;;;;;;;;0.25;0.25;;;;;9.38;82.43;100481.53;5027361;28;45527;-84
2022/11/24 05:33:22;;;;;;;;;1.50;1.50;;;;;9.25;82.27;100463.59;5033440;28;45416;-84
2022/11/24 05:35:49;;;;;;;;;0.25;0.25;;;;;9.50;82.20;100488.94;5032757;28;47569;-84
2022/11/24 05:38:17;;;;;;;;;0.00;0.00;;;;;9.15;82.20;100436.16;5022719;28;45803;-85
2022/11/24 05:40:43;;;;;;;;;0.50;0.50;;;;;9.46;82.32;100500.19;5035833;28;45458;-83
2022/11/24 05:43:13;;;;;;;;;1.00;1.00;;;;;9.12;82.17;100454.41;5036083;28;45456;-85
2022/11/24 05:45:39;;;;;;;;;0.00;0.00;;;;;9.56;82.18;100518.03;5029664;28;45422;-83
2022/11/24 05:48:10;;;;;;;;;1.25;1.25;;;;;9.56;82.18;100536.41;5017067;28;45657;-83
2022/11/24 05:50:36;;;;;;;;;2.00;2.00;;;;;9.22;82.33;100479.22;5030922;28;45548;-83
2022/11/24 05:53:07;;;;;;;;;2.75;2.75;;;;;9.53;82.21;100534.53;5010833;28;45543;-83
2022/11/24 05:55:33;;;;;;;;;2.00;2.00;;;;;9.39;82.00;100527.91;5030074;28;48073;-84
2022/11/24 05:58:03;;;;;;;;;2.00;2.00;;;;;9.50;82.16;100550.16;5028889;28;45624;-84
2022/11/24 06:00:30;;;;;;;;;2.75;2.75;;;;;9.28;81.77;100514.41;5028025;28;45366;-84
2022/11/24 06:02:57;;;;;;;;;6.50;6.50;;;;;9.47;81.80;100562.31;5011614;28;45694;-83
2022/11/24 06:05:23;;;;;;;;;2.00;2.00;;;;;9.43;82.00;100556.03;5026954;28;47305;-84
2022/11/24 06:07:48;;;;;;;;;7.25;5.25;;;;;8.88;81.86;100480.63;5029012;28;45398;-83
2022/11/24 06:10:15;;;;;;;;;3.25;3.25;;;;;8.74;81.79;100458.25;5026009;28;45289;-83
2022/11/24 06:12:41;;;;;;;;;1.00;1.00;;;;;8.98;82.07;100515.94;5026642;28;45550;-83
2022/11/24 06:15:06;;;;;;;;;1.00;1.00;;;;;9.39;82.18;100576.84;5027769;28;45418;-84
2022/11/24 06:17:33;;;;;;;;;3.00;2.00;;;;;9.04;82.20;100513.53;5028354;28;45636;-85
2022/11/24 06:19:58;;;;;;;;;2.00;2.00;;;;;9.24;82.23;100551.84;5028977;28;45780;-83
2022/11/24 06:22:23;;;;;;;;;1.00;1.00;;;;;9.41;82.13;100572.53;5048059;28;45448;-83
2022/11/24 06:24:50;;;;;;;;;1.00;1.00;;;;;8.85;81.98;100477.88;5041872;28;47302;-83
2022/11/24 06:27:15;;;;;;;;;1.50;1.50;;;;;9.40;82.26;100582.16;5051578;28;45438;-83
2022/11/24 06:29:41;;;;;;;;;1.75;1.50;;;;;9.40;82.15;100582.16;5021565;28;45522;-83
2022/11/24 06:32:07;;;;;;;;;2.00;2.00;;;;;9.39;82.15;100589.97;5011671;28;45374;-83
2022/11/24 06:34:32;;;;;;;;;2.00;2.00;;;;;9.32;82.46;100564.38;5023890;28;45562;-83
2022/11/24 06:36:57;;;;;;;;;3.00;3.00;;;;;9.23;82.33;100547.44;5035384;28;54681;-83
2022/11/24 06:39:23;;;;;;;;;2.25;2.00;;;;;8.85;82.24;100490.09;5028014;28;45347;-82
2022/11/24 06:41:49;;;;;;;;;0.00;0.00;;;;;9.39;82.56;100592.59;5011772;28;48661;-83
2022/11/24 06:44:14;;;;;;;;;0.75;0.00;;;;;9.01;82.50;100537.00;5010824;28;45510;-83
2022/11/24 06:46:39;;;;;;;;;1.00;1.00;;;;;8.88;82.50;100508.56;4996296;28;52272;-89
2022/11/24 06:49:05;;;;;;;;;2.00;1.33;;;;;8.91;82.53;100522.66;5015206;28;58404;-83
2022/11/24 06:51:30;;;;;;;;;2.33;2.33;;;;;8.90;82.69;100523.50;5012176;28;45360;-84
2022/11/24 06:53:55;;;;;;;;;1.00;1.00;;;;;9.14;82.83;100573.31;5015125;28;46615;-84
2022/11/24 06:56:21;;;;;;;;;1.25;1.25;;;;;9.03;82.75;100556.31;5012928;28;45384;-83
2022/11/24 06:58:50;;;;;;;;;3.00;2.00;;;;;9.27;82.78;100586.06;5015491;28;45498;-83
2022/11/24 07:01:18;;;;;;;;;2.00;2.00;;;;;9.05;82.70;100546.75;5023633;28;45468;-82
2022/11/24 07:03:44;;;;;;;;;2.75;2.75;;;;;9.44;82.79;100620.78;5024597;28;45609;-82
2022/11/24 07:06:09;;;;;;;;;3.50;2.25;;;;;9.27;82.66;100600.91;5009790;28;45651;-83
2022/11/24 07:08:35;;;;;;;;;2.50;2.50;;;;;9.28;83.03;100613.19;5011428;28;45599;-83
2022/11/24 07:11:09;;;;;;;;;2.00;2.00;;;;;9.30;83.09;100612.38;4993682;28;45361;-83
2022/11/24 07:13:35;;;;;;;;;2.75;2.75;;;;;9.33;82.65;100622.13;5015822;28;45455;-84
2022/11/24 07:16:29;;;;;;;;;3.00;3.00;;;;;9.43;82.90;100639.97;5011819;28;45362;-83
2022/11/24 07:18:55;;;;;;;;;5.75;3.00;;;;;9.41;82.75;100617.13;5013609;28;45393;-84
2022/11/24 07:21:23;;;;;;;;;4.50;4.50;;;;;9.60;82.76;100661.59;5010688;28;45469;-82
2022/11/24 07:23:49;;;;;;;;;4.00;4.00;;;;;9.42;82.63;100621.56;5012050;28;46130;-82
2022/11/24 07:26:15;;;;;;;;;4.00;4.00;;;;;9.27;82.91;100601.81;5010381;28;46047;-82
2022/11/24 07:28:40;;;;;;;;;3.50;3.50;;;;;9.22;82.65;100577.16;5010344;28;45471;-83
2022/11/24 07:31:07;;;;;;;;;4.75;3.75;;;;;9.75;82.43;100662.19;5010323;28;45467;-83
2022/11/24 07:33:33;;;;;;;;;3.00;3.00;;;;;9.30;82.75;100580.03;5010263;28;45694;-92
2022/11/24 07:35:59;;;;;;;;;3.25;3.25;;;;;9.68;82.62;100638.25;5010423;28;45411;-82
2022/11/24 07:38:24;;;;;;;;;3.00;2.00;;;;;9.48;83.06;100598.19;5010299;28;45455;-83
2022/11/24 07:40:49;;;;;;;;;3.00;2.00;;;;;9.36;82.58;100563.63;5017144;28;45600;-82
2022/11/24 07:43:14;;;;;;;;;4.67;4.67;;;;;9.98;82.55;100662.09;5041172;28;54452;-82
2022/11/24 07:45:40;;;;;;;;;4.67;4.67;;;;;9.77;82.09;100623.75;5030208;28;45677;-82
2022/11/24 07:48:05;;;;;;;;;3.00;2.00;;;;;9.89;82.48;100656.50;5029733;28;45491;-82
2022/11/24 07:50:31;;;;;;;;;3.50;3.50;;;;;10.06;82.76;100698.28;5028713;28;45591;-82
2022/11/24 07:53:00;;;;;;;;;2.00;2.00;;;;;9.95;82.42;100682.97;5029929;28;64204;-83
2022/11/24 07:55:25;;;;;;;;;4.00;4.00;;;;;10.04;82.38;100702.56;5037728;28;45512;-83
2022/11/24 07:57:50;;;;;;;;;5.67;4.67;;;;;9.80;82.74;100665.84;5065546;28;62070;-82
2022/11/24 08:00:16;;;;;;;;;5.00;5.00;;;;;9.74;82.50;100660.38;5039830;28;61168;-82
2022/11/24 08:02:42;;;;;;;;;5.00;5.00;;;;;9.39;82.81;100600.47;5013967;28;47221;-83
2022/11/24 08:05:08;;;;;;;;;3.67;3.00;;;;;9.47;82.75;100620.91;5029109;28;56345;-82
2022/11/24 08:07:33;;;;;;;;;4.25;4.00;;;;;9.89;82.48;100703.75;5029784;28;45763;-83
2022/11/24 08:09:58;;;;;;;;;3.25;3.00;;;;;9.94;82.86;100708.34;5028445;28;45374;-90
2022/11/24 08:12:24;;;;;;;;;2.67;2.33;;;;;9.32;82.86;100611.59;5028285;28;61785;-83
2022/11/24 08:14:49;;;;;;;;;3.33;3.33;;;;;10.01;83.28;100710.38;5029363;28;59665;-87
2022/11/24 08:17:18;;;;;;;;;2.75;2.75;;;;;9.99;83.41;100713.75;5030114;28;45557;-84
2022/11/24 08:19:43;;;;;;;;;3.00;3.00;;;;;9.57;83.11;100635.25;5030106;28;46135;-92
2022/11/24 08:22:08;;;;;;;;;4.50;4.25;;;;;10.20;83.17;100734.66;5030045;28;45387;-83
2022/11/24 08:24:34;;;;;;;;;2.50;2.50;;;;;9.83;82.73;100658.06;5030097;28;45489;-85
2022/11/24 08:26:59;;;;;;;;;3.75;3.00;;;;;10.30;82.93;100740.34;5030665;28;45895;-83
2022/11/24 08:29:29;;;;;;;;;4.50;3.00;;;;;10.18;82.67;100713.59;5030361;28;45571;-86
2022/11/24 08:31:56;;;;;;;;;2.75;2.75;;;;;9.80;82.53;100659.69;5030055;28;45513;-82
2022/11/24 08:34:21;;;;;;;;;2.25;2.25;;;;;10.17;82.46;100721.41;5029689;28;45886;-83
2022/11/24 08:36:47;;;;;;;;;1.50;1.25;;;;;9.98;82.26;100704.09;5031244;28;45511;-83
2022/11/24 08:39:12;;;;;;;;;2.67;2.00;;;;;10.24;82.66;100755.84;5029853;28;45621;-84
2022/11/24 08:41:37;;;;;;;;;2.00;2.00;;;;;10.19;82.61;100756.50;5028326;28;47786;-87
2022/11/24 08:44:03;;;;;;;;;3.33;2.67;;;;;9.98;82.71;100714.59;5030525;28;45504;-89
2022/11/24 08:46:28;;;;;;;;;3.00;3.00;;;;;10.02;82.76;100733.16;5029194;28;45635;-83
2022/11/24 08:48:54;;;;;;;;;3.67;3.00;;;;;10.18;82.77;100760.84;5029425;28;61658;-83
2022/11/24 08:51:25;;;;;;;;;3.25;2.75;;;;;10.06;83.16;100729.81;5029385;28;46385;-81
2022/11/24 08:53:58;;;;;;;;;3.00;2.75;;;;;9.93;82.99;100697.78;5030775;28;45952;-83
2022/11/24 08:56:29;;;;;;;;;4.75;3.50;;;;;10.22;82.86;100741.75;5028573;28;45650;-83
2022/11/24 08:58:55;;;;;;;;;5.00;3.00;;;;;10.38;82.97;100761.59;5030492;28;45439;-83
2022/11/24 09:01:21;;;;;;;;;4.00;3.00;;;;;10.43;82.73;100764.41;5029549;28;45447;-87
2022/11/24 09:03:47;;;;;;;;;3.25;2.50;;;;;10.36;82.59;100744.91;5029818;28;45399;-83
2022/11/24 09:06:14;;;;;;;;;2.00;2.00;;;;;10.17;82.70;100706.53;5030040;28;45635;-82
2022/11/24 09:08:39;;;;;;;;;3.50;2.00;;;;;10.20;82.54;100700.53;5029947;28;45577;-88
2022/11/24 09:11:08;;;;;;;;;1.00;1.00;;;;;10.32;82.84;100717.63;5027880;28;46298;-87
2022/11/24 09:13:34;;;;;;;;;2.00;2.00;;;;;10.63;82.69;100770.34;5030373;28;45620;-91
2022/11/24 09:16:05;;;;;;;;;2.00;2.00;;;;;10.20;82.54;100696.16;5030352;28;45410;-83
2022/11/24 09:18:31;;;;;;;;;1.25;1.25;;;;;10.55;82.50;100749.97;5029742;28;45514;-90
2022/11/24 09:21:18;;;;;;;;;2.75;2.75;;;;;10.63;81.96;100771.25;5029993;28;45478;-83
2022/11/24 09:23:46;;;;;;;;;2.00;1.25;;;;;10.49;82.60;100747.13;5030286;28;45824;-83
2022/11/24 09:26:17;;;;;;;;;3.50;3.00;;;;;10.13;82.45;100683.63;5029668;28;45856;-83
2022/11/24 09:28:42;;;;;;;;;1.75;1.75;;;;;10.33;82.64;100711.53;5030146;28;45562;-88
2022/11/24 09:31:12;;;;;;;;;3.00;2.00;;;;;10.48;82.66;100719.03;5029710;28;45428;-84
2022/11/24 09:33:39;;;;;;;;;6.00;3.00;;;;;10.63;82.62;100733.56;5032920;28;45664;-83
2022/11/24 09:36:05;;;;;;;;;1.50;1.50;;;;;10.83;82.64;100751.78;5031248;28;45577;-84
2022/11/24 09:38:31;;;;;;;;;1.00;1.00;;;;;10.53;82.16;100690.28;5030086;28;45300;-83
2022/11/24 09:41:16;;;;;;;;;0.75;0.75;;;;;10.90;82.24;100734.50;5030531;28;45524;-83
2022/11/24 09:43:55;;;;;;;;;3.25;3.25;;;;;10.96;82.23;100733.78;5031388;28;45524;-87
2022/11/24 09:46:34;;;;;;;;;1.75;1.75;;;;;11.09;82.33;100752.66;5030220;28;45805;-83
2022/11/24 09:49:03;;;;;;;;;3.75;1.00;;;;;10.70;82.12;100678.63;5045639;28;45593;-82
2022/11/24 09:51:31;;;;;;;;;2.00;2.00;;;;;11.13;82.24;100737.84;5030450;28;45516;-84
2022/11/24 09:54:15;;;;;;;;;3.00;2.25;;;;;11.17;81.95;100755.53;5029801;28;45818;-83
2022/11/24 09:56:42;;;;;;;;;2.75;2.00;;;;;11.34;81.98;100770.13;5033171;28;45458;-87
2022/11/24 09:59:15;;;;;;;;;5.50;4.50;;;;;11.43;81.80;100766.91;5034499;28;45258;-89
2022/11/24 10:01:43;;;;;;;;;2.75;2.75;;;;;11.62;81.58;100773.59;5056189;28;46523;-82
2022/11/24 10:04:19;;;;;;;;;4.25;4.25;;;;;11.42;80.94;100732.59;5062087;28;45668;-86
2022/11/24 10:07:17;;;;;;;;;2.75;2.75;;;;;11.67;80.68;100779.00;5062027;28;44774;-85
2022/11/24 10:10:01;;;;;;;;;2.25;2.25;;;;;11.71;81.12;100783.53;5041806;28;45588;-82
2022/11/24 10:13:01;;;;;;;;;3.00;2.00;;;;;11.91;80.82;100794.69;5038304;28;45396;-83
2022/11/24 10:15:32;;;;;;;;;1.75;1.00;;;;;12.05;80.48;100790.72;5032378;28;45459;-85
2022/11/24 10:18:07;;;;;;;;;3.00;3.00;;;;;12.05;79.75;100785.47;5032866;28;45450;-84
2022/11/24 10:20:55;;;;;;;;;4.25;3.00;;;;;12.04;80.17;100783.69;5033103;28;45589;-88
2022/11/24 10:23:44;;;;;;;;;5.00;3.00;;;;;12.00;79.86;100769.50;5014629;28;47154;-86
2022/11/24 10:26:32;;;;;;;;;3.25;3.00;;;;;12.00;79.70;100758.09;5049343;28;45506;-83
2022/11/24 10:28:57;;;;;;;;;3.00;3.00;;;;;11.81;79.77;100739.06;5040272;28;45465;-88
2022/11/24 10:31:52;;;;;;;;;3.50;2.00;;;;;11.91;79.37;100752.56;5032088;28;45866;-83
2022/11/24 10:34:36;;;;;;;;;3.75;3.75;;;;;11.98;80.20;100744.88;5029392;28;46302;-87
2022/11/24 10:37:27;;;;;;;;;3.25;3.25;;;;;12.06;80.15;100743.34;5032743;28;45511;-86
2022/11/24 10:40:16;;;;;;;;;4.75;3.00;;;;;12.09;80.04;100738.16;5028035;28;45593;-86
2022/11/24 10:42:42;;;;;;;;;4.50;2.00;;;;;11.52;79.48;100630.28;5035869;28;45434;-85
2022/11/24 10:45:11;;;;;;;;;4.25;2.75;;;;;12.03;79.68;100727.47;5031487;28;45509;-88
2022/11/24 10:47:38;;;;;;;;;4.50;3.75;;;;;11.61;79.44;100662.16;5031568;28;45459;-88
2022/11/24 10:50:30;;;;;;;;;4.25;3.75;;;;;11.72;79.54;100674.72;5032110;28;45561;-84
2022/11/24 10:53:07;;;;;;;;;7.00;4.75;;;;;12.03;79.71;100727.47;5030326;28;45514;-83
2022/11/24 10:55:54;;;;;;;;;4.50;4.00;;;;;12.03;79.77;100726.56;5030901;28;45540;-83
2022/11/24 10:58:46;;;;;;;;;5.00;3.50;;;;;12.00;79.10;100722.09;5031394;28;45444;-83
2022/11/24 11:01:11;;;;;;;;;6.00;4.00;;;;;12.01;79.58;100723.00;5027238;28;45336;-84
2022/11/24 11:03:45;;;;;;;;;6.67;5.33;;;;;11.88;79.34;100692.81;5031516;28;45329;-90
2022/11/24 11:06:26;;;;;;;;;7.25;6.25;;;;;11.79;79.25;100666.16;5031235;28;45543;-90
2022/11/24 11:09:06;;;;;;;;;3.75;3.75;;;;;12.06;79.53;100702.94;5032160;28;45807;-84
2022/11/24 11:11:33;;;;;;;;;6.00;5.50;;;;;12.04;79.72;100686.22;5033763;28;45659;-83
2022/11/24 11:14:01;;;;;;;;;8.25;6.00;;;;;11.72;79.49;100624.69;5032635;28;45468;-85
2022/11/24 11:16:52;;;;;;;;;3.25;3.00;;;;;12.24;79.61;100711.34;5031545;28;45601;-88
2022/11/24 11:19:37;;;;;;;;;6.00;5.00;;;;;11.94;79.38;100642.03;5031132;28;45395;-83
2022/11/24 11:22:13;;;;;;;;;6.50;6.00;;;;;12.22;78.79;100694.63;5016167;28;45508;-90
2022/11/24 11:24:41;;;;;;;;;10.25;8.00;;;;;11.80;79.30;100613.53;5030574;28;45652;-82
2022/11/24 11:27:17;;;;;;;;;6.00;6.00;;;;;12.33;78.78;100695.78;5030789;28;45685;-85
2022/11/24 11:29:43;;;;;;;;;8.50;7.50;;;;;12.36;78.71;100685.34;5031779;28;45458;-83
2022/11/24 11:32:20;;;;;;;;;5.00;5.00;;;;;12.51;79.32;100676.03;5031247;28;45403;-85
2022/11/24 11:34:48;;;;;;;;;7.25;5.75;;;;;12.52;79.08;100675.19;5013676;28;45308;-87